Dodge City, Kansas
Current Conditions -  °F | °C
As of 6:52 PM on Monday 20 Oct 2014 (Local Time) from KDDC Reporting Station
Clear Clear  
Wind Chill: 65°   Ceiling: Unl
Heat Index: 65°   Visibility: 10mi
Dew Point: 44°   Wind: 7mph
Humidity: 47%   Direction: 120°ESE
Pressure: 30.08"   Gusts: NA
Location:  37.75°N, 100.01°W
Report Text: KDDC 202352Z AUTO 12006KT 10SM CLR 18/07 A3008 RMK AO2 SLP175 T01830067 10256 20183 55000
Loading
Personal Weather Stations






























Interactive Weather Map New forecast layout! Learn more

10-Day Weather Forecast

Advertisements
Track Severe Weather on mobile